This is the latest recevied weather packets stored in our database for station/object DL9TPA-1. If no packets are shown the sender has not sent any weather packets the latest 10 day(s).
| Time | Temp. | Humidity | Pressure | Rain* | Wind** | Luminosity | Snow |
|---|---|---|---|---|---|---|---|
| 1777976001 | 17.78° C | 80% | 1008.1 hPa | 0 mm | - | - | - |
| 1777975399 | 18.33° C | 79% | 1008 hPa | 0 mm | - | - | - |
| 1777974800 | 18.33° C | 77% | 1008.1 hPa | 0 mm | - | - | - |
| 1777974197 | 18.89° C | 76% | 1008.2 hPa | 0 mm | - | - | - |
| 1777973594 | 19.44° C | 74% | 1008.2 hPa | 0 mm | - | - | - |
| 1777972994 | 20° C | 73% | 1008.2 hPa | 0 mm | - | - | - |
| 1777972390 | 20° C | 74% | 1008.2 hPa | 0 mm | - | - | - |
| 1777971789 | 19.44° C | 76% | 1008.3 hPa | 0 mm | - | - | - |
| 1777971185 | 18.89° C | 78% | 1008.5 hPa | 0 mm | - | - | - |
| 1777970583 | 18.33° C | 80% | 1008.5 hPa | 0 mm | - | - | - |
| 1777969981 | 17.78° C | 81% | 1008.5 hPa | 0 mm | - | - | - |
| 1777969378 | 17.78° C | 81% | 1008.5 hPa | 0 mm | - | - | - |
| 1777968778 | 17.22° C | 82% | 1008.5 hPa | 0 mm | - | - | - |
| 1777968175 | 17.22° C | 84% | 1008.6 hPa | 0 mm | - | - | - |
| 1777967572 | 16.67° C | 84% | 1008.7 hPa | 0 mm | - | - | - |
| 1777966971 | 16.11° C | 87% | 1008.8 hPa | 0 mm | - | - | - |
| 1777966370 | 15.56° C | 88% | 1008.8 hPa | 0 mm | - | - | - |
| 1777965770 | 15° C | 89% | 1008.8 hPa | 0 mm | - | - | - |
| 1777965164 | 15° C | 89% | 1008.8 hPa | 0 mm | - | - | - |
| 1777964565 | 14.44° C | 90% | 1008.9 hPa | 0 mm | - | - | - |
| 1777963963 | 14.44° C | 90% | 1008.9 hPa | 0 mm | - | - | - |
| 1777963359 | 14.44° C | 90% | 1008.9 hPa | 0 mm | - | - | - |
| 1777962757 | 13.89° C | 90% | 1008.9 hPa | 0 mm | - | - | - |
| 1777962155 | 13.89° C | 90% | 1009 hPa | 0 mm | - | - | - |
| 1777961553 | 13.89° C | 90% | 1009.2 hPa | 0 mm | - | - | - |
* Rain latest hour (hover to see other rain measurements)
** Current wind speed in m/s (hover to see current wind gust speed)